createdAt,value
2023-03-26T00:00:16.430Z,9.32
2023-03-26T00:01:16.460Z,9.34
2023-03-26T00:02:16.425Z,9.37
2023-03-26T00:03:16.411Z,9.31
2023-03-26T00:04:16.392Z,9.26
2023-03-26T00:05:16.370Z,9.26
2023-03-26T00:06:16.340Z,9.25
2023-03-26T00:07:16.343Z,9.26
2023-03-26T00:08:16.315Z,9.29
2023-03-26T00:09:16.307Z,9.29
2023-03-26T00:10:16.288Z,9.29
2023-03-26T00:11:16.275Z,9.31
2023-03-26T00:12:16.281Z,9.26
2023-03-26T00:13:16.254Z,9.25
2023-03-26T00:14:16.234Z,9.23
2023-03-26T00:15:16.226Z,9.25
2023-03-26T00:16:16.255Z,9.25
2023-03-26T00:17:16.264Z,9.29
2023-03-26T00:18:16.182Z,9.36
2023-03-26T00:19:16.173Z,9.34
2023-03-26T00:20:16.179Z,9.40
2023-03-26T00:21:16.150Z,9.41
2023-03-26T00:22:16.143Z,9.32
2023-03-26T00:23:16.121Z,9.34
2023-03-26T00:24:16.141Z,9.31
2023-03-26T00:25:16.105Z,9.39
2023-03-26T00:26:16.079Z,9.39
2023-03-26T00:27:16.087Z,9.36
2023-03-26T00:28:16.052Z,9.39
2023-03-26T00:29:16.042Z,9.37
2023-03-26T00:30:16.028Z,9.32
2023-03-26T00:31:16.037Z,9.29
2023-03-26T00:32:16.024Z,9.36
2023-03-26T00:33:15.991Z,9.34
2023-03-26T00:34:16.073Z,9.39
2023-03-26T00:35:15.965Z,9.41
2023-03-26T00:36:16.051Z,9.43
2023-03-26T00:37:15.957Z,9.39
2023-03-26T00:38:15.924Z,9.36
2023-03-26T00:39:15.923Z,9.41
2023-03-26T00:40:15.938Z,9.43
2023-03-26T00:41:15.891Z,9.41
2023-03-26T00:42:15.897Z,9.41
2023-03-26T00:43:15.872Z,9.46
2023-03-26T00:44:15.850Z,9.46
2023-03-26T00:45:15.845Z,9.44
2023-03-26T00:46:15.906Z,9.37
2023-03-26T00:47:15.859Z,9.34
2023-03-26T00:48:15.796Z,9.25
2023-03-26T00:49:15.792Z,9.28
2023-03-26T00:50:15.771Z,9.25
2023-03-26T00:51:15.912Z,9.29
2023-03-26T00:52:15.785Z,9.25
2023-03-26T00:53:15.745Z,9.25
2023-03-26T00:54:15.770Z,9.25
2023-03-26T00:55:15.707Z,9.25
2023-03-26T00:56:15.692Z,9.22
2023-03-26T00:57:25.696Z,9.22
2023-03-26T00:58:15.669Z,9.22
2023-03-26T00:59:15.663Z,9.28
2023-03-26T01:00:15.653Z,9.26
2023-03-26T01:01:15.666Z,9.29
2023-03-26T01:02:15.696Z,9.25
2023-03-26T01:03:26.576Z,9.19
2023-03-26T01:04:15.711Z,9.14
2023-03-26T01:05:15.600Z,9.10
2023-03-26T01:06:15.568Z,9.16
2023-03-26T01:07:15.571Z,9.19
2023-03-26T01:08:15.558Z,9.21
2023-03-26T01:09:15.518Z,9.23
2023-03-26T01:10:15.506Z,9.25
2023-03-26T01:11:15.498Z,9.18
2023-03-26T01:12:15.516Z,9.14
2023-03-26T01:13:15.481Z,9.06
2023-03-26T01:14:15.451Z,8.99
2023-03-26T01:15:15.439Z,9.02
2023-03-26T01:16:15.464Z,8.95
2023-03-26T01:17:15.414Z,8.99
2023-03-26T01:18:15.421Z,9.00
2023-03-26T01:19:15.411Z,8.97
2023-03-26T01:20:15.376Z,8.92
2023-03-26T01:21:15.369Z,8.94
2023-03-26T01:22:15.348Z,8.97
2023-03-26T01:23:15.350Z,8.99
2023-03-26T01:24:15.346Z,9.02
2023-03-26T01:25:15.307Z,8.91
2023-03-26T01:26:15.307Z,8.99
2023-03-26T01:27:15.288Z,8.99
2023-03-26T01:28:15.299Z,8.89
2023-03-26T01:29:15.252Z,8.88
2023-03-26T01:30:15.239Z,8.88
2023-03-26T01:31:15.235Z,8.81
2023-03-26T01:32:15.238Z,8.85
2023-03-26T01:33:15.282Z,8.87
2023-03-26T01:34:15.195Z,8.84
2023-03-26T01:35:15.180Z,8.82
2023-03-26T01:36:15.161Z,8.79
2023-03-26T01:37:15.163Z,8.74
2023-03-26T01:38:15.148Z,8.73
2023-03-26T01:39:15.121Z,8.79
2023-03-26T01:40:15.137Z,8.81
2023-03-26T01:41:15.095Z,8.82
2023-03-26T01:42:15.083Z,8.82
2023-03-26T01:43:15.082Z,8.84
2023-03-26T01:44:15.056Z,8.79
2023-03-26T01:45:15.053Z,8.79
2023-03-26T01:46:15.100Z,8.79
2023-03-26T01:47:15.024Z,8.82
2023-03-26T01:48:15.020Z,8.84
2023-03-26T01:49:14.987Z,8.82
2023-03-26T01:50:14.989Z,8.78
2023-03-26T01:51:14.964Z,8.69
2023-03-26T01:52:14.954Z,8.70
2023-03-26T01:53:14.958Z,8.71
2023-03-26T01:54:14.929Z,8.71
2023-03-26T01:55:14.941Z,8.63
2023-03-26T01:56:14.918Z,8.71
2023-03-26T01:57:14.921Z,8.73
2023-03-26T01:58:14.894Z,8.76
2023-03-26T01:59:14.856Z,8.73
2023-03-26T02:00:14.849Z,8.73
2023-03-26T02:01:14.845Z,8.66
2023-03-26T02:02:14.881Z,8.56
2023-03-26T02:03:14.924Z,8.61
2023-03-26T02:04:14.794Z,8.58
2023-03-26T02:05:14.776Z,8.60
2023-03-26T02:06:14.772Z,8.48
2023-03-26T02:07:14.771Z,8.45
2023-03-26T02:08:14.753Z,8.52
2023-03-26T02:09:14.726Z,8.52
2023-03-26T02:10:14.717Z,8.51
2023-03-26T02:11:16.049Z,8.56
2023-03-26T02:12:14.724Z,8.52
2023-03-26T02:13:14.691Z,8.48
2023-03-26T02:14:14.673Z,8.53
2023-03-26T02:15:14.661Z,8.51
2023-03-26T02:16:14.699Z,8.49
2023-03-26T02:17:14.621Z,8.48
2023-03-26T02:18:14.639Z,8.48
2023-03-26T02:19:14.598Z,8.46
2023-03-26T02:20:14.580Z,8.46
2023-03-26T02:21:14.569Z,8.37
2023-03-26T02:22:14.556Z,8.36
2023-03-26T02:23:14.567Z,8.42
2023-03-26T02:24:14.566Z,8.41
2023-03-26T02:25:14.520Z,8.37
2023-03-26T02:26:14.515Z,8.36
2023-03-26T02:27:14.518Z,8.37
2023-03-26T02:28:14.523Z,8.36
2023-03-26T02:29:14.472Z,8.36
2023-03-26T02:30:14.446Z,8.37
2023-03-26T02:31:14.472Z,8.30
2023-03-26T02:32:14.427Z,8.28
2023-03-26T02:33:14.428Z,8.27
2023-03-26T02:34:14.393Z,8.28
2023-03-26T02:35:14.454Z,8.30
2023-03-26T02:36:14.463Z,8.26
2023-03-26T02:37:14.358Z,8.26
2023-03-26T02:38:14.344Z,8.23
2023-03-26T02:39:14.372Z,8.19
2023-03-26T02:40:14.321Z,8.15
2023-03-26T02:41:14.304Z,8.20
2023-03-26T02:42:14.288Z,8.19
2023-03-26T02:43:14.279Z,8.26
2023-03-26T02:44:14.305Z,8.15
2023-03-26T02:45:14.248Z,8.16
2023-03-26T02:46:14.326Z,8.09
2023-03-26T02:47:14.220Z,8.09
2023-03-26T02:48:14.220Z,8.18
2023-03-26T02:49:14.207Z,8.16
2023-03-26T02:50:14.182Z,8.12
2023-03-26T02:51:14.187Z,8.09
2023-03-26T02:52:14.158Z,8.06
2023-03-26T02:53:14.140Z,8.09
2023-03-26T02:54:14.148Z,8.09
2023-03-26T02:55:14.118Z,8.06
2023-03-26T02:56:14.104Z,8.09
2023-03-26T02:57:14.141Z,8.05
2023-03-26T02:58:14.079Z,8.05
2023-03-26T02:59:14.078Z,8.01
2023-03-26T03:00:14.086Z,8.06
2023-03-26T03:01:14.074Z,8.00
2023-03-26T03:02:14.043Z,8.01
2023-03-26T03:03:14.124Z,7.98
2023-03-26T03:04:14.016Z,8.05
2023-03-26T03:05:14.013Z,8.08
2023-03-26T03:06:13.968Z,8.01
2023-03-26T03:07:13.971Z,8.03
2023-03-26T03:08:13.970Z,8.08
2023-03-26T03:09:13.949Z,8.08
2023-03-26T03:10:13.950Z,8.05
2023-03-26T03:11:14.839Z,8.00
2023-03-26T03:12:13.886Z,7.98
2023-03-26T03:13:13.868Z,7.97
2023-03-26T03:14:13.876Z,7.95
2023-03-26T03:15:13.859Z,7.94
2023-03-26T03:16:13.915Z,7.94
2023-03-26T03:17:13.818Z,7.97
2023-03-26T03:18:13.806Z,7.94
2023-03-26T03:19:13.825Z,7.94
2023-03-26T03:20:13.786Z,7.94
2023-03-26T03:21:13.784Z,7.95
2023-03-26T03:22:13.760Z,7.87
2023-03-26T03:23:13.769Z,7.91
2023-03-26T03:24:13.780Z,7.90
2023-03-26T03:25:13.715Z,7.87
2023-03-26T03:26:13.712Z,7.90
2023-03-26T03:27:13.708Z,7.87
2023-03-26T03:28:13.705Z,7.93
2023-03-26T03:29:13.693Z,7.91
2023-03-26T03:30:13.669Z,7.98
2023-03-26T03:31:13.704Z,7.97
2023-03-26T03:32:13.644Z,8.00
2023-03-26T03:33:13.640Z,7.97
2023-03-26T03:34:13.598Z,7.98
2023-03-26T03:35:13.599Z,8.05
2023-03-26T03:36:20.107Z,8.00
2023-03-26T03:37:14.558Z,8.00
2023-03-26T03:38:13.547Z,8.03
2023-03-26T03:39:13.533Z,8.00
2023-03-26T03:40:13.536Z,8.06
2023-03-26T03:41:13.510Z,8.05
2023-03-26T03:42:13.489Z,8.03
2023-03-26T03:43:13.484Z,8.01
2023-03-26T03:44:13.480Z,8.03
2023-03-26T03:45:13.470Z,8.03
2023-03-26T03:46:13.494Z,8.01
2023-03-26T03:47:13.424Z,8.01
2023-03-26T03:48:13.435Z,8.01
2023-03-26T03:49:13.398Z,7.98
2023-03-26T03:50:13.401Z,8.00
2023-03-26T03:51:13.369Z,7.95
2023-03-26T03:52:13.361Z,7.97
2023-03-26T03:53:13.342Z,7.97
2023-03-26T03:54:13.344Z,7.94
2023-03-26T03:55:13.330Z,7.94
2023-03-26T03:56:13.304Z,8.00
2023-03-26T03:57:13.340Z,7.97
2023-03-26T03:58:13.281Z,7.95
2023-03-26T03:59:13.267Z,7.91
2023-03-26T04:00:13.273Z,7.95
2023-03-26T04:01:13.241Z,7.93
2023-03-26T04:02:13.243Z,7.82
2023-03-26T04:03:13.340Z,7.85
2023-03-26T04:04:13.308Z,7.80
2023-03-26T04:05:13.221Z,7.80
2023-03-26T04:06:13.175Z,7.83
2023-03-26T04:07:13.165Z,7.83
2023-03-26T04:08:13.149Z,7.85
2023-03-26T04:09:13.137Z,7.80
2023-03-26T04:10:13.175Z,7.83
2023-03-26T04:11:13.120Z,7.87
2023-03-26T04:12:13.114Z,7.88
2023-03-26T04:13:13.084Z,7.93
2023-03-26T04:14:13.072Z,7.95
2023-03-26T04:15:13.072Z,7.97
2023-03-26T04:16:13.099Z,8.03
2023-03-26T04:17:13.027Z,8.01
2023-03-26T04:18:13.015Z,8.09
2023-03-26T04:19:12.998Z,8.12
2023-03-26T04:20:13.128Z,8.13
2023-03-26T04:21:12.979Z,8.13
2023-03-26T04:22:12.970Z,8.12
2023-03-26T04:23:12.947Z,8.15
2023-03-26T04:24:12.939Z,8.12
2023-03-26T04:25:12.955Z,8.12
2023-03-26T04:26:12.907Z,8.13
2023-03-26T04:27:12.903Z,8.15
2023-03-26T04:28:12.895Z,8.12
2023-03-26T04:29:12.888Z,8.15
2023-03-26T04:30:12.882Z,8.18
2023-03-26T04:31:12.852Z,8.15
2023-03-26T04:32:12.839Z,8.13
2023-03-26T04:33:12.822Z,8.13
2023-03-26T04:34:12.813Z,8.15
2023-03-26T04:35:12.806Z,8.18
2023-03-26T04:36:12.795Z,8.16
2023-03-26T04:37:12.785Z,8.19
2023-03-26T04:38:12.753Z,8.19
2023-03-26T04:39:12.769Z,8.15
2023-03-26T04:40:12.774Z,8.16
2023-03-26T04:41:12.736Z,8.19
2023-03-26T04:42:12.697Z,8.27
2023-03-26T04:43:12.697Z,8.24
2023-03-26T04:44:12.672Z,8.26
2023-03-26T04:45:12.673Z,8.30
2023-03-26T04:46:12.676Z,8.30
2023-03-26T04:47:12.628Z,8.31
2023-03-26T04:48:12.615Z,8.31
2023-03-26T04:49:12.606Z,8.31
2023-03-26T04:50:12.617Z,8.36
2023-03-26T04:51:12.578Z,8.34
2023-03-26T04:52:12.580Z,8.33
2023-03-26T04:53:12.553Z,8.30
2023-03-26T04:54:12.547Z,8.36
2023-03-26T04:55:12.546Z,8.33
2023-03-26T04:56:12.513Z,8.30
2023-03-26T04:57:12.573Z,8.31
2023-03-26T04:58:12.488Z,8.33
2023-03-26T04:59:12.475Z,8.38
2023-03-26T05:00:12.501Z,8.38
2023-03-26T05:01:12.504Z,8.36
2023-03-26T05:02:12.437Z,8.33
2023-03-26T05:03:12.430Z,8.34
2023-03-26T05:04:12.460Z,8.33
2023-03-26T05:05:12.404Z,8.33
2023-03-26T05:06:12.394Z,8.36
2023-03-26T05:07:12.374Z,8.37
2023-03-26T05:08:13.119Z,8.37
2023-03-26T05:09:12.343Z,8.42
2023-03-26T05:10:12.350Z,8.41
2023-03-26T05:11:12.350Z,8.37
2023-03-26T05:12:12.300Z,8.46
2023-03-26T05:13:12.338Z,8.44
2023-03-26T05:14:12.273Z,8.38
2023-03-26T05:15:12.288Z,8.38
2023-03-26T05:16:12.311Z,8.41
2023-03-26T05:17:12.237Z,8.42
2023-03-26T05:18:12.225Z,8.44
2023-03-26T05:19:12.212Z,8.38
2023-03-26T05:20:12.197Z,8.44
2023-03-26T05:21:12.205Z,8.42
2023-03-26T05:22:12.177Z,8.44
2023-03-26T05:23:12.173Z,8.44
2023-03-26T05:24:12.160Z,8.46
2023-03-26T05:25:12.137Z,8.45
2023-03-26T05:26:12.141Z,8.46
2023-03-26T05:27:12.110Z,8.46
2023-03-26T05:28:12.090Z,8.48
2023-03-26T05:29:12.099Z,8.45
2023-03-26T05:30:12.094Z,8.46
2023-03-26T05:31:12.080Z,8.48
2023-03-26T05:32:12.049Z,8.48
2023-03-26T05:33:12.098Z,8.48
2023-03-26T05:34:12.032Z,8.53
2023-03-26T05:35:11.998Z,8.52
2023-03-26T05:36:12.005Z,8.53
2023-03-26T05:37:11.975Z,8.55
2023-03-26T05:38:11.960Z,8.53
2023-03-26T05:39:11.953Z,8.58
2023-03-26T05:40:11.962Z,8.61
2023-03-26T05:41:11.945Z,8.63
2023-03-26T05:42:11.927Z,8.66
2023-03-26T05:43:11.916Z,8.64
2023-03-26T05:44:11.889Z,8.69
2023-03-26T05:45:11.869Z,8.71
2023-03-26T05:46:11.928Z,8.71
2023-03-26T05:47:11.850Z,8.74
2023-03-26T05:48:11.837Z,8.76
2023-03-26T05:49:11.837Z,8.87
2023-03-26T05:50:11.813Z,8.89
2023-03-26T05:51:11.834Z,8.94
2023-03-26T05:52:11.790Z,8.97
2023-03-26T05:53:11.777Z,9.00
2023-03-26T05:54:11.762Z,9.02
2023-03-26T05:55:11.779Z,9.06
2023-03-26T05:56:11.768Z,9.06
2023-03-26T05:57:11.817Z,9.10
2023-03-26T05:58:11.712Z,9.14
2023-03-26T05:59:11.696Z,9.21
2023-03-26T06:00:11.690Z,9.18
2023-03-26T06:01:11.661Z,9.22
2023-03-26T06:02:11.658Z,9.18
2023-03-26T06:03:11.793Z,9.19
2023-03-26T06:04:11.717Z,9.26
2023-03-26T06:05:11.612Z,9.29
2023-03-26T06:06:11.591Z,9.29
2023-03-26T06:07:11.602Z,9.32
2023-03-26T06:08:11.581Z,9.36
2023-03-26T06:09:11.552Z,9.37
2023-03-26T06:10:11.541Z,9.44
2023-03-26T06:11:11.531Z,9.47
2023-03-26T06:12:11.547Z,9.54
2023-03-26T06:13:11.503Z,9.58
2023-03-26T06:14:11.484Z,9.61
2023-03-26T06:15:11.478Z,9.62
2023-03-26T06:16:25.920Z,9.55
2023-03-26T06:17:11.470Z,9.46
2023-03-26T06:18:11.453Z,9.43
2023-03-26T06:19:11.450Z,9.37
2023-03-26T06:20:11.405Z,9.32
2023-03-26T06:21:11.400Z,9.28
2023-03-26T06:22:11.410Z,9.21
2023-03-26T06:23:11.373Z,9.26
2023-03-26T06:24:11.357Z,9.16
2023-03-26T06:25:11.360Z,9.21
2023-03-26T06:26:11.327Z,9.18
2023-03-26T06:27:11.327Z,9.22
2023-03-26T06:28:11.327Z,9.22
2023-03-26T06:29:11.291Z,9.21
2023-03-26T06:30:11.286Z,9.14
2023-03-26T06:31:11.288Z,9.16
2023-03-26T06:32:19.730Z,9.13
2023-03-26T06:33:12.243Z,9.21
2023-03-26T06:34:11.229Z,9.19
2023-03-26T06:35:11.211Z,9.21
2023-03-26T06:36:11.236Z,9.25
2023-03-26T06:37:11.203Z,9.23
2023-03-26T06:38:11.175Z,9.25
2023-03-26T06:39:11.158Z,9.23
2023-03-26T06:40:11.155Z,9.25
2023-03-26T06:41:11.144Z,9.31
2023-03-26T06:42:11.135Z,9.34
2023-03-26T06:43:11.284Z,9.39
2023-03-26T06:44:11.135Z,9.37
2023-03-26T06:45:11.096Z,9.40
2023-03-26T06:46:11.153Z,9.44
2023-03-26T06:47:11.082Z,9.48
2023-03-26T06:48:11.043Z,9.50
2023-03-26T06:49:11.034Z,9.55
2023-03-26T06:50:11.016Z,9.61
2023-03-26T06:51:11.006Z,9.64
2023-03-26T06:52:11.010Z,9.69
2023-03-26T06:53:10.978Z,9.68
2023-03-26T06:54:10.967Z,9.72
2023-03-26T06:55:10.962Z,9.69
2023-03-26T06:56:10.932Z,9.79
2023-03-26T06:57:11.008Z,9.83
2023-03-26T06:58:10.922Z,9.87
2023-03-26T06:59:10.900Z,9.82
2023-03-26T07:00:10.914Z,9.79
2023-03-26T07:01:10.917Z,9.82
2023-03-26T07:02:10.882Z,9.91
2023-03-26T07:03:10.846Z,9.95
2023-03-26T07:04:10.854Z,9.91
2023-03-26T07:05:10.842Z,9.92
2023-03-26T07:06:10.809Z,9.89
2023-03-26T07:07:10.798Z,9.98
2023-03-26T07:08:10.806Z,10.05
2023-03-26T07:09:10.770Z,10.17
2023-03-26T07:10:10.763Z,10.12
2023-03-26T07:11:10.745Z,10.10
2023-03-26T07:12:10.731Z,9.99
2023-03-26T07:13:10.760Z,10.02
2023-03-26T07:14:10.706Z,10.05
2023-03-26T07:15:10.722Z,10.10
2023-03-26T07:16:10.720Z,10.17
2023-03-26T07:17:10.674Z,10.31
2023-03-26T07:18:10.668Z,10.30
2023-03-26T07:19:10.635Z,10.34
2023-03-26T07:20:10.739Z,10.35
2023-03-26T07:21:10.610Z,10.31
2023-03-26T07:22:10.604Z,10.33
2023-03-26T07:23:10.611Z,10.28
2023-03-26T07:24:10.568Z,10.28
2023-03-26T07:25:10.555Z,10.31
2023-03-26T07:26:10.540Z,10.28
2023-03-26T07:27:10.534Z,10.30
2023-03-26T07:28:10.536Z,10.25
2023-03-26T07:29:10.506Z,10.09
2023-03-26T07:30:10.490Z,10.02
2023-03-26T07:31:10.477Z,9.91
2023-03-26T07:32:10.488Z,9.86
2023-03-26T07:33:10.722Z,9.84
2023-03-26T07:34:10.439Z,9.77
2023-03-26T07:35:10.444Z,9.79
2023-03-26T07:36:10.405Z,9.74
2023-03-26T07:37:10.397Z,9.79
2023-03-26T07:38:10.413Z,9.72
2023-03-26T07:39:10.367Z,9.68
2023-03-26T07:40:10.353Z,9.58
2023-03-26T07:41:10.345Z,9.55
2023-03-26T07:42:10.335Z,9.55
2023-03-26T07:43:10.329Z,9.43
2023-03-26T07:44:10.298Z,9.26
2023-03-26T07:45:10.292Z,9.21
2023-03-26T07:46:10.309Z,9.10
2023-03-26T07:47:10.260Z,9.00
2023-03-26T07:48:10.283Z,8.92
2023-03-26T07:49:10.239Z,8.88
2023-03-26T07:50:10.222Z,8.88
2023-03-26T07:51:10.215Z,8.82
2023-03-26T07:52:10.224Z,8.81
2023-03-26T07:53:10.316Z,8.76
2023-03-26T07:54:10.170Z,8.73
2023-03-26T07:55:10.154Z,8.74
2023-03-26T07:56:10.161Z,8.78
2023-03-26T07:57:11.172Z,8.74
2023-03-26T07:58:10.679Z,8.78
2023-03-26T07:59:10.100Z,8.82
2023-03-26T08:00:10.091Z,8.84
2023-03-26T08:01:10.081Z,8.85
2023-03-26T08:02:10.070Z,8.71
2023-03-26T08:03:10.185Z,8.85
2023-03-26T08:04:25.063Z,8.81
2023-03-26T08:05:11.044Z,8.85
2023-03-26T08:06:10.024Z,8.84
2023-03-26T08:07:10.155Z,8.82
2023-03-26T08:08:10.004Z,8.73
2023-03-26T08:09:09.973Z,8.76
2023-03-26T08:10:09.956Z,8.71
2023-03-26T08:11:09.950Z,8.66
2023-03-26T08:12:09.936Z,8.69
2023-03-26T08:13:09.946Z,8.70
2023-03-26T08:14:09.906Z,8.73
2023-03-26T08:15:09.888Z,8.70
2023-03-26T08:16:10.018Z,8.74
2023-03-26T08:17:09.869Z,8.69
2023-03-26T08:18:09.917Z,8.73
2023-03-26T08:19:09.838Z,8.74
2023-03-26T08:20:09.841Z,8.74
2023-03-26T08:21:09.814Z,8.82
2023-03-26T08:22:09.808Z,8.84
2023-03-26T08:23:09.787Z,8.84
2023-03-26T08:24:09.792Z,8.88
2023-03-26T08:25:09.760Z,8.87
2023-03-26T08:26:09.745Z,8.87
2023-03-26T08:27:09.741Z,8.85
2023-03-26T08:28:09.715Z,8.91
2023-03-26T08:29:09.726Z,8.95
2023-03-26T08:30:09.692Z,9.02
2023-03-26T08:31:09.741Z,9.00
2023-03-26T08:32:09.715Z,8.91
2023-03-26T08:33:09.684Z,8.95
2023-03-26T08:34:09.733Z,9.00
2023-03-26T08:35:09.660Z,8.99
2023-03-26T08:36:09.655Z,9.04
2023-03-26T08:37:09.601Z,9.08
2023-03-26T08:38:09.585Z,9.03
2023-03-26T08:39:09.614Z,8.97
2023-03-26T08:40:09.568Z,9.00
2023-03-26T08:41:09.550Z,9.02
2023-03-26T08:42:09.535Z,8.95
2023-03-26T08:43:09.525Z,9.03
2023-03-26T08:44:09.533Z,9.08
2023-03-26T08:45:09.497Z,9.10
2023-03-26T08:46:09.488Z,9.08
2023-03-26T08:47:09.483Z,9.13
2023-03-26T08:48:09.497Z,9.03
2023-03-26T08:49:09.460Z,9.08
2023-03-26T08:50:09.459Z,9.08
2023-03-26T08:51:09.416Z,9.16
2023-03-26T08:52:09.424Z,9.18
2023-03-26T08:53:09.399Z,9.16
2023-03-26T08:54:09.396Z,9.11
2023-03-26T08:55:09.375Z,9.23
2023-03-26T08:56:09.374Z,9.25
2023-03-26T08:57:09.386Z,9.23
2023-03-26T08:58:09.333Z,9.21
2023-03-26T08:59:09.350Z,9.18
2023-03-26T09:00:09.301Z,9.18
2023-03-26T09:01:09.285Z,9.26
2023-03-26T09:02:09.304Z,9.29
2023-03-26T09:03:09.318Z,9.29
2023-03-26T09:04:09.311Z,9.31
2023-03-26T09:05:09.231Z,9.31
2023-03-26T09:06:09.225Z,9.32
2023-03-26T09:07:09.203Z,9.23
2023-03-26T09:08:09.230Z,9.18
2023-03-26T09:09:09.222Z,9.14
2023-03-26T09:10:09.177Z,9.22
2023-03-26T09:11:09.150Z,9.23
2023-03-26T09:12:09.138Z,9.26
2023-03-26T09:13:09.165Z,9.22
2023-03-26T09:14:09.146Z,9.25
2023-03-26T09:15:09.099Z,9.28
2023-03-26T09:16:09.130Z,9.19
2023-03-26T09:17:09.079Z,9.18
2023-03-26T09:18:09.137Z,9.03
2023-03-26T09:19:09.071Z,9.06
2023-03-26T09:20:09.053Z,9.11
2023-03-26T09:21:09.019Z,9.13
2023-03-26T09:22:09.020Z,9.04
2023-03-26T09:23:09.008Z,9.03
2023-03-26T09:24:09.018Z,9.03
2023-03-26T09:25:08.990Z,8.99
2023-03-26T09:26:08.958Z,8.99
2023-03-26T09:27:08.943Z,9.02
2023-03-26T09:28:08.968Z,9.00
2023-03-26T09:29:08.932Z,9.03
2023-03-26T09:30:08.939Z,9.10
2023-03-26T09:31:08.922Z,9.06
2023-03-26T09:32:08.877Z,8.99
2023-03-26T09:33:08.871Z,9.02
2023-03-26T09:34:08.855Z,9.06
2023-03-26T09:35:08.910Z,8.99
2023-03-26T09:36:08.832Z,9.04
2023-03-26T09:37:08.857Z,9.04
2023-03-26T09:38:08.831Z,9.11
2023-03-26T09:39:08.901Z,9.00
2023-03-26T09:40:08.831Z,8.97
2023-03-26T09:41:08.834Z,8.92
2023-03-26T09:42:08.783Z,8.99
2023-03-26T09:43:08.733Z,9.00
2023-03-26T09:44:08.733Z,9.08
2023-03-26T09:45:08.755Z,9.14
2023-03-26T09:46:08.764Z,9.00
2023-03-26T09:47:08.678Z,9.00
2023-03-26T09:48:08.688Z,8.99
2023-03-26T09:49:08.685Z,9.04
2023-03-26T09:50:08.654Z,9.06
2023-03-26T09:51:08.620Z,9.16
2023-03-26T09:52:08.615Z,9.14
2023-03-26T09:53:08.606Z,9.18
2023-03-26T09:54:08.585Z,9.14
2023-03-26T09:55:08.602Z,9.13
2023-03-26T09:56:08.575Z,9.03
2023-03-26T09:57:08.652Z,9.00
2023-03-26T09:58:08.598Z,8.97
2023-03-26T09:59:08.519Z,8.94
2023-03-26T10:00:08.540Z,8.92
2023-03-26T10:01:08.615Z,8.92
2023-03-26T10:02:08.500Z,8.92
2023-03-26T10:03:08.491Z,8.94
2023-03-26T10:04:08.472Z,8.99
2023-03-26T10:05:08.464Z,8.99
2023-03-26T10:06:08.435Z,9.02
2023-03-26T10:07:08.475Z,9.02
2023-03-26T10:08:08.399Z,8.91
2023-03-26T10:09:08.390Z,8.95
2023-03-26T10:10:08.406Z,8.99
2023-03-26T10:11:08.356Z,9.02
2023-03-26T10:12:08.366Z,9.19
2023-03-26T10:13:14.419Z,9.14
2023-03-26T10:14:08.321Z,9.04
2023-03-26T10:15:08.319Z,9.11
2023-03-26T10:16:08.299Z,9.19
2023-03-26T10:17:08.281Z,9.23
2023-03-26T10:18:27.136Z,9.13
2023-03-26T10:19:08.275Z,9.14
2023-03-26T10:20:08.259Z,9.26
2023-03-26T10:21:08.234Z,9.26
2023-03-26T10:22:08.240Z,9.34
2023-03-26T10:23:08.200Z,9.23
2023-03-26T10:24:08.188Z,9.21
2023-03-26T10:25:08.205Z,9.18
2023-03-26T10:26:08.156Z,9.25
2023-03-26T10:27:10.775Z,9.14
2023-03-26T10:28:08.153Z,9.19
2023-03-26T10:29:08.116Z,9.11
2023-03-26T10:30:08.162Z,9.21
2023-03-26T10:31:08.124Z,9.28
2023-03-26T10:32:08.076Z,9.31
2023-03-26T10:33:08.076Z,9.23
2023-03-26T10:34:08.056Z,9.22
2023-03-26T10:35:08.048Z,9.25
2023-03-26T10:36:08.111Z,9.14
2023-03-26T10:37:08.012Z,9.14
2023-03-26T10:38:07.999Z,9.18
2023-03-26T10:39:07.987Z,9.22
2023-03-26T10:40:08.013Z,9.18
2023-03-26T10:41:07.977Z,9.28
2023-03-26T10:42:07.955Z,9.23
2023-03-26T10:43:07.964Z,9.43
2023-03-26T10:44:08.996Z,9.55
2023-03-26T10:45:07.907Z,9.74
2023-03-26T10:46:07.992Z,9.72
2023-03-26T10:47:07.878Z,9.82
2023-03-26T10:48:07.922Z,10.01
2023-03-26T10:49:07.855Z,10.78
2023-03-26T10:50:07.861Z,11.25
2023-03-26T10:51:07.896Z,11.22
2023-03-26T10:52:07.857Z,12.02
2023-03-26T10:53:07.828Z,13.15
2023-03-26T10:54:07.793Z,13.15
2023-03-26T10:55:07.842Z,12.65
2023-03-26T10:56:07.825Z,12.76
2023-03-26T10:57:07.813Z,11.97
2023-03-26T10:58:07.747Z,11.40
2023-03-26T10:59:07.729Z,11.10
2023-03-26T11:00:07.738Z,10.90
2023-03-26T11:01:07.741Z,10.84
2023-03-26T11:02:07.681Z,10.89
2023-03-26T11:03:07.716Z,10.97
2023-03-26T11:04:07.668Z,11.02
2023-03-26T11:05:07.656Z,11.10
2023-03-26T11:06:07.653Z,11.14
2023-03-26T11:07:07.609Z,11.05
2023-03-26T11:08:07.617Z,10.97
2023-03-26T11:09:07.626Z,11.65
2023-03-26T11:10:07.629Z,12.43
2023-03-26T11:11:07.576Z,12.75
2023-03-26T11:12:25.644Z,12.45
2023-03-26T11:13:07.540Z,13.46
2023-03-26T11:14:07.522Z,13.35
2023-03-26T11:15:07.525Z,13.31
2023-03-26T11:16:07.576Z,13.23
2023-03-26T11:17:07.485Z,13.67
2023-03-26T11:18:07.535Z,13.13
2023-03-26T11:19:07.478Z,13.59
2023-03-26T11:20:07.461Z,13.71
2023-03-26T11:21:19.040Z,12.62
2023-03-26T11:22:07.418Z,12.35
2023-03-26T11:23:07.404Z,12.45
2023-03-26T11:24:07.421Z,12.86
2023-03-26T11:25:07.382Z,13.52
2023-03-26T11:26:07.385Z,12.65
2023-03-26T11:27:15.452Z,12.22
2023-03-26T11:28:07.342Z,12.07
2023-03-26T11:29:31.348Z,12.21
2023-03-26T11:30:07.317Z,11.91
2023-03-26T11:31:07.329Z,11.68
2023-03-26T11:32:07.328Z,11.40
2023-03-26T11:33:07.275Z,11.52
2023-03-26T11:34:07.260Z,11.69
2023-03-26T11:35:07.260Z,11.65
2023-03-26T11:36:07.324Z,11.77
2023-03-26T11:37:07.246Z,11.75
2023-03-26T11:38:07.211Z,12.03
2023-03-26T11:39:07.199Z,11.80
2023-03-26T11:40:07.216Z,11.78
2023-03-26T11:41:07.199Z,11.68
2023-03-26T11:42:07.186Z,11.55
2023-03-26T11:43:07.141Z,11.48
2023-03-26T11:44:07.127Z,11.44
2023-03-26T11:45:07.113Z,11.32
2023-03-26T11:46:07.130Z,11.26
2023-03-26T11:47:07.084Z,11.15
2023-03-26T11:48:07.121Z,11.12
2023-03-26T11:49:07.060Z,10.99
2023-03-26T11:50:07.046Z,10.92
2023-03-26T11:51:07.052Z,10.92
2023-03-26T11:52:07.021Z,10.94
2023-03-26T11:53:07.018Z,10.97
2023-03-26T11:54:06.994Z,10.97
2023-03-26T11:55:06.991Z,10.82
2023-03-26T11:56:06.977Z,10.81
2023-03-26T11:57:07.443Z,10.76
2023-03-26T11:58:06.939Z,10.74
2023-03-26T11:59:06.920Z,10.61
2023-03-26T12:00:06.915Z,10.60
2023-03-26T12:01:06.933Z,10.59
2023-03-26T12:02:06.924Z,10.63
2023-03-26T12:03:06.899Z,10.54
2023-03-26T12:04:06.934Z,10.48
2023-03-26T12:05:06.852Z,10.41
2023-03-26T12:06:06.859Z,10.41
2023-03-26T12:07:06.828Z,10.41
2023-03-26T12:08:06.806Z,10.37
2023-03-26T12:09:06.797Z,10.33
2023-03-26T12:10:18.385Z,10.37
2023-03-26T12:11:06.805Z,10.38
2023-03-26T12:12:06.823Z,10.34
2023-03-26T12:13:06.741Z,10.31
2023-03-26T12:14:06.755Z,10.31
2023-03-26T12:15:06.703Z,10.34
2023-03-26T12:16:06.720Z,10.38
2023-03-26T12:17:06.719Z,10.34
2023-03-26T12:18:06.685Z,10.34
2023-03-26T12:19:06.660Z,10.23
2023-03-26T12:20:06.670Z,10.10
2023-03-26T12:21:08.469Z,10.22
2023-03-26T12:22:06.654Z,10.09
2023-03-26T12:23:06.617Z,10.10
2023-03-26T12:24:06.593Z,10.04
2023-03-26T12:25:06.572Z,10.01
2023-03-26T12:26:06.568Z,10.02
2023-03-26T12:27:06.575Z,9.82
2023-03-26T12:28:06.541Z,9.77
2023-03-26T12:29:06.527Z,9.74
2023-03-26T12:30:06.512Z,9.72
2023-03-26T12:31:06.657Z,9.65
2023-03-26T12:32:06.564Z,9.68
2023-03-26T12:33:06.514Z,9.73
2023-03-26T12:34:06.454Z,9.66
2023-03-26T12:35:06.440Z,9.61
2023-03-26T12:36:06.489Z,9.61
2023-03-26T12:37:06.427Z,9.68
2023-03-26T12:38:06.414Z,9.68
2023-03-26T12:39:42.727Z,9.72
2023-03-26T12:40:12.956Z,9.72
2023-03-26T12:41:06.363Z,9.62
2023-03-26T12:44:44.020Z,9.58
2023-03-26T12:44:52.813Z,9.54
2023-03-26T12:44:54.486Z,9.54
2023-03-26T12:45:06.324Z,9.44
2023-03-26T12:47:15.148Z,9.46
2023-03-26T12:47:59.420Z,9.37
2023-03-26T12:48:06.323Z,9.22
2023-03-26T12:49:06.369Z,9.23
2023-03-26T12:50:06.248Z,9.28
2023-03-26T12:51:06.227Z,9.23
2023-03-26T12:52:07.679Z,9.28
2023-03-26T12:53:06.219Z,9.34
2023-03-26T12:54:06.197Z,9.48
2023-03-26T12:55:12.166Z,9.65
2023-03-26T12:56:07.179Z,9.82
2023-03-26T12:57:12.023Z,10.01
2023-03-26T12:58:14.080Z,10.07
2023-03-26T12:59:07.120Z,10.31
2023-03-26T13:00:06.107Z,10.49
2023-03-26T13:01:06.132Z,10.56
2023-03-26T13:02:06.137Z,10.82
2023-03-26T13:03:06.163Z,11.05
2023-03-26T13:04:06.052Z,10.92
2023-03-26T13:05:07.060Z,10.92
2023-03-26T13:06:06.029Z,10.64
2023-03-26T13:07:06.033Z,10.57
2023-03-26T13:08:06.022Z,10.57
2023-03-26T13:09:05.999Z,10.63
2023-03-26T13:10:05.978Z,10.51
2023-03-26T13:11:06.531Z,10.42
2023-03-26T13:12:05.972Z,10.26
2023-03-26T13:13:05.949Z,10.22